createdAt,value
2024-02-28T00:01:07.163Z,37.38
2024-02-28T00:03:35.706Z,45.05
2024-02-28T00:06:03.619Z,41.55
2024-02-28T00:08:32.817Z,42.00
2024-02-28T00:11:00.960Z,41.72
2024-02-28T00:13:28.791Z,36.50
2024-02-28T00:15:56.879Z,41.97
2024-02-28T00:18:24.830Z,34.65
2024-02-28T00:20:56.854Z,40.05
2024-02-28T00:23:24.705Z,35.80
2024-02-28T00:25:54.037Z,43.33
2024-02-28T00:28:23.051Z,38.58
2024-02-28T00:30:51.067Z,37.83
2024-02-28T00:33:18.950Z,33.38
2024-02-28T00:35:46.830Z,41.45
2024-02-28T00:38:14.770Z,35.25
2024-02-28T00:40:42.663Z,36.20
2024-02-28T00:43:11.851Z,34.22
2024-02-28T00:45:39.934Z,47.00
2024-02-28T00:48:08.962Z,41.47
2024-02-28T00:50:36.907Z,33.58
2024-02-28T00:53:05.102Z,32.30
2024-02-28T00:55:32.931Z,34.10
2024-02-28T00:58:00.792Z,33.40
2024-02-28T01:00:30.047Z,34.28
2024-02-28T01:02:57.974Z,31.27
2024-02-28T01:05:27.210Z,37.20
2024-02-28T01:07:55.405Z,33.47
2024-02-28T01:10:23.526Z,33.28
2024-02-28T01:12:51.555Z,37.08
2024-02-28T01:15:20.121Z,31.40
2024-02-28T01:17:49.405Z,34.92
2024-02-28T01:20:17.597Z,40.92
2024-02-28T01:22:46.023Z,37.17
2024-02-28T01:25:14.076Z,39.80
2024-02-28T01:27:41.938Z,39.85
2024-02-28T01:30:10.421Z,36.75
2024-02-28T01:32:38.358Z,40.13
2024-02-28T01:35:10.512Z,40.72
2024-02-28T01:37:38.445Z,39.15
2024-02-28T01:40:07.461Z,40.80
2024-02-28T01:42:35.368Z,34.83
2024-02-28T01:45:03.317Z,33.42
2024-02-28T01:47:31.665Z,34.55
2024-02-28T01:50:00.167Z,38.95
2024-02-28T01:52:29.435Z,38.38
2024-02-28T01:54:57.704Z,38.78
2024-02-28T01:57:25.688Z,33.60
2024-02-28T01:59:55.791Z,36.22
2024-02-28T02:02:23.848Z,35.50
2024-02-28T02:04:54.055Z,38.42
2024-02-28T02:07:22.055Z,34.33
2024-02-28T02:09:51.387Z,33.70
2024-02-28T02:12:19.433Z,33.72
2024-02-28T02:14:49.997Z,37.60
2024-02-28T02:17:19.577Z,34.90
2024-02-28T02:19:47.724Z,40.72
2024-02-28T02:22:16.574Z,38.53
2024-02-28T02:24:46.013Z,35.15
2024-02-28T02:27:13.950Z,40.08
2024-02-28T02:29:41.767Z,38.60
2024-02-28T02:32:09.677Z,40.60
2024-02-28T02:34:37.645Z,36.28
2024-02-28T02:37:06.145Z,33.05
2024-02-28T02:39:34.144Z,37.20
2024-02-28T02:42:03.458Z,29.60
2024-02-28T02:44:31.906Z,39.65
2024-02-28T02:46:59.704Z,26.23
2024-02-28T02:49:27.542Z,28.25
2024-02-28T02:51:55.486Z,34.13
2024-02-28T02:54:23.329Z,36.83
2024-02-28T02:56:51.212Z,31.85
2024-02-28T02:59:22.605Z,37.85
2024-02-28T03:01:52.238Z,38.80
2024-02-28T03:04:20.108Z,30.70
2024-02-28T03:06:48.039Z,36.38
2024-02-28T03:09:16.062Z,38.75
2024-02-28T03:11:44.207Z,42.35
2024-02-28T03:14:12.323Z,44.78
2024-02-28T03:16:44.423Z,46.42
2024-02-28T03:19:12.944Z,38.45
2024-02-28T03:21:40.888Z,41.85
2024-02-28T03:24:09.033Z,37.75
2024-02-28T03:26:36.851Z,39.05
2024-02-28T03:29:05.095Z,40.90
2024-02-28T03:31:33.045Z,40.50
2024-02-28T03:34:02.605Z,38.40
2024-02-28T03:36:31.231Z,37.45
2024-02-28T03:38:59.128Z,40.60
2024-02-28T03:41:26.972Z,40.83
2024-02-28T03:43:55.124Z,39.33
2024-02-28T03:46:23.609Z,46.30
2024-02-28T03:48:51.617Z,36.17
2024-02-28T03:51:20.897Z,41.50
2024-02-28T03:53:48.967Z,44.50
2024-02-28T03:56:26.119Z,36.17
2024-02-28T03:58:54.825Z,47.63
2024-02-28T04:01:22.761Z,47.03
2024-02-28T04:03:50.813Z,42.97
2024-02-28T04:06:20.240Z,44.60
2024-02-28T04:08:48.628Z,42.55
2024-02-28T04:11:16.500Z,49.30
2024-02-28T04:13:44.398Z,47.08
2024-02-28T04:16:12.301Z,55.75
2024-02-28T04:18:40.237Z,62.35
2024-02-28T04:21:08.025Z,61.33
2024-02-28T04:23:39.267Z,73.65
2024-02-28T04:26:07.106Z,58.25
2024-02-28T04:28:34.914Z,57.13
2024-02-28T04:31:02.798Z,58.55
2024-02-28T04:33:30.697Z,69.45
2024-02-28T04:35:59.022Z,62.05
2024-02-28T04:38:26.883Z,56.10
2024-02-28T04:40:56.180Z,55.45
2024-02-28T04:43:23.995Z,63.22
2024-02-28T04:45:51.904Z,60.00
2024-02-28T04:48:19.795Z,61.65
2024-02-28T04:50:47.680Z,62.67
2024-02-28T04:53:15.531Z,57.90
2024-02-28T04:55:43.329Z,65.32
2024-02-28T04:58:12.594Z,72.25
2024-02-28T05:00:40.749Z,68.97
2024-02-28T05:03:09.061Z,68.03
2024-02-28T05:05:36.913Z,62.55
2024-02-28T05:08:05.653Z,70.20
2024-02-28T05:10:35.251Z,71.40
2024-02-28T05:13:05.216Z,65.38
2024-02-28T05:15:34.527Z,63.45
2024-02-28T05:18:02.656Z,65.95
2024-02-28T05:20:30.503Z,69.75
2024-02-28T05:22:58.345Z,75.07
2024-02-28T05:25:26.101Z,74.25
2024-02-28T05:27:53.982Z,76.68
2024-02-28T05:30:22.397Z,70.03
2024-02-28T05:32:52.075Z,71.50
2024-02-28T05:35:19.035Z,71.00
2024-02-28T05:37:47.738Z,66.72
2024-02-28T05:40:15.601Z,73.60
2024-02-28T05:42:44.189Z,64.20
2024-02-28T05:45:13.949Z,70.95
2024-02-28T05:47:41.886Z,64.22
2024-02-28T05:50:12.268Z,61.00
2024-02-28T05:52:40.204Z,67.38
2024-02-28T05:55:08.714Z,65.20
2024-02-28T05:57:36.550Z,74.75
2024-02-28T06:00:11.037Z,59.38
2024-02-28T06:02:43.017Z,70.32
2024-02-28T06:05:12.242Z,68.70
2024-02-28T06:07:40.039Z,78.43
2024-02-28T06:10:09.268Z,79.07
2024-02-28T06:12:37.091Z,79.35
2024-02-28T06:15:07.905Z,81.10
2024-02-28T06:17:36.001Z,77.10
2024-02-28T06:20:04.654Z,67.63
2024-02-28T06:22:33.854Z,72.38
2024-02-28T06:25:01.716Z,69.55
2024-02-28T06:27:29.788Z,68.55
2024-02-28T06:29:57.543Z,70.72
2024-02-28T06:32:26.128Z,74.57
2024-02-28T06:34:54.650Z,82.00
2024-02-28T06:37:22.441Z,75.65
2024-02-28T06:39:51.656Z,80.78
2024-02-28T06:42:19.555Z,63.42
2024-02-28T06:44:47.537Z,67.38
2024-02-28T06:47:15.539Z,62.05
2024-02-28T06:49:43.799Z,62.25
2024-02-28T06:52:11.774Z,54.42
2024-02-28T06:54:39.694Z,53.10
2024-02-28T06:57:08.994Z,67.95
2024-02-28T06:59:37.022Z,57.00
2024-02-28T07:02:05.939Z,53.08
2024-02-28T07:04:33.771Z,49.63
2024-02-28T07:07:02.359Z,55.20
2024-02-28T07:09:32.319Z,49.88
2024-02-28T07:12:00.219Z,53.20
2024-02-28T07:14:29.371Z,53.42
2024-02-28T07:16:57.503Z,52.83
2024-02-28T07:19:25.496Z,53.78
2024-02-28T07:21:53.355Z,52.33
2024-02-28T07:24:21.239Z,49.25
2024-02-28T07:26:50.279Z,54.47
2024-02-28T07:29:18.922Z,43.30
2024-02-28T07:31:48.102Z,50.95
2024-02-28T07:34:16.009Z,44.65
2024-02-28T07:36:44.718Z,44.00
2024-02-28T07:39:13.944Z,44.65
2024-02-28T07:41:42.707Z,40.22
2024-02-28T07:44:11.895Z,43.38
2024-02-28T07:46:39.812Z,52.58
2024-02-28T07:49:09.150Z,44.13
2024-02-28T07:51:37.051Z,43.38
2024-02-28T07:54:05.208Z,42.53
2024-02-28T07:56:33.095Z,45.75
2024-02-28T07:59:00.964Z,51.55
2024-02-28T08:01:28.967Z,45.50
2024-02-28T08:03:57.134Z,43.78
2024-02-28T08:06:26.744Z,54.00
2024-02-28T08:08:54.612Z,46.55
2024-02-28T08:11:22.586Z,40.60
2024-02-28T08:13:50.425Z,44.60
2024-02-28T08:16:18.459Z,46.53
2024-02-28T08:18:46.497Z,46.60
2024-02-28T08:21:14.314Z,46.92
2024-02-28T08:23:43.597Z,46.35
2024-02-28T08:26:11.630Z,45.03
2024-02-28T08:28:40.143Z,42.35
2024-02-28T08:31:08.198Z,49.20
2024-02-28T08:33:36.180Z,50.17
2024-02-28T08:36:04.444Z,49.47
2024-02-28T08:38:32.230Z,43.17
2024-02-28T08:41:01.828Z,49.42
2024-02-28T08:43:29.736Z,45.72
2024-02-28T08:45:58.194Z,48.55
2024-02-28T08:48:26.127Z,45.42
2024-02-28T08:50:54.128Z,48.65
2024-02-28T08:53:21.934Z,44.30
2024-02-28T08:55:50.737Z,46.80
2024-02-28T08:58:20.225Z,41.47
2024-02-28T09:00:48.174Z,45.78
2024-02-28T09:03:16.494Z,45.78
2024-02-28T09:05:44.686Z,50.00
2024-02-28T09:08:14.460Z,44.08
2024-02-28T09:10:43.183Z,47.90
2024-02-28T09:13:13.381Z,41.63
2024-02-28T09:15:42.847Z,38.45
2024-02-28T09:18:11.107Z,41.13
2024-02-28T09:20:38.972Z,50.85
2024-02-28T09:23:08.021Z,53.13
2024-02-28T09:25:36.755Z,46.13
2024-02-28T09:28:05.039Z,48.28
2024-02-28T09:30:40.158Z,48.08
2024-02-28T09:33:15.407Z,51.88
2024-02-28T09:35:43.842Z,52.35
2024-02-28T09:38:12.657Z,47.90
2024-02-28T09:40:40.751Z,52.10
2024-02-28T09:43:18.180Z,53.78
2024-02-28T09:45:48.788Z,50.88
2024-02-28T09:48:19.056Z,52.08
2024-02-28T09:50:48.017Z,53.72
2024-02-28T09:53:15.974Z,50.65
2024-02-28T09:55:44.711Z,59.50
2024-02-28T09:58:13.414Z,54.83
2024-02-28T10:00:45.204Z,55.15
2024-02-28T10:03:15.433Z,59.55
2024-02-28T10:05:45.461Z,54.13
2024-02-28T10:08:14.651Z,59.50
2024-02-28T10:10:48.267Z,51.97
2024-02-28T10:13:17.733Z,53.22
2024-02-28T10:15:45.893Z,66.90
2024-02-28T10:18:13.875Z,62.05
2024-02-28T10:20:41.709Z,63.85
2024-02-28T10:23:11.075Z,56.60
2024-02-28T10:25:51.916Z,74.90
2024-02-28T10:28:24.447Z,58.95
2024-02-28T10:30:53.058Z,54.95
2024-02-28T10:33:21.087Z,56.08
2024-02-28T10:35:54.713Z,59.30
2024-02-28T10:38:25.353Z,58.50
2024-02-28T10:40:54.892Z,57.67
2024-02-28T10:43:23.468Z,51.25
2024-02-28T10:46:13.414Z,63.05
2024-02-28T10:48:41.484Z,57.95
2024-02-28T10:51:12.263Z,61.72
2024-02-28T10:53:44.359Z,53.08
2024-02-28T10:56:13.620Z,57.75
2024-02-28T10:58:51.919Z,57.90
2024-02-28T11:01:21.152Z,62.67
2024-02-28T11:03:51.412Z,57.30
2024-02-28T11:06:21.797Z,59.42
2024-02-28T11:08:55.280Z,56.97
2024-02-28T11:11:24.638Z,68.60
2024-02-28T11:13:56.552Z,71.60
2024-02-28T11:16:31.732Z,61.95
2024-02-28T11:19:00.228Z,58.38
2024-02-28T11:21:29.432Z,66.40
2024-02-28T11:24:01.410Z,69.25
2024-02-28T11:26:29.973Z,65.72
2024-02-28T11:28:58.050Z,66.13
2024-02-28T11:31:25.995Z,64.68
2024-02-28T11:33:53.959Z,62.08
2024-02-28T11:36:22.675Z,64.32
2024-02-28T11:38:51.265Z,61.63
2024-02-28T11:41:29.838Z,76.10
2024-02-28T11:43:57.764Z,63.90
2024-02-28T11:46:26.175Z,66.00
2024-02-28T11:48:54.869Z,65.03
2024-02-28T11:51:22.795Z,56.08
2024-02-28T11:53:50.696Z,71.93
2024-02-28T11:56:22.212Z,60.65
2024-02-28T11:58:55.321Z,66.32
2024-02-28T12:01:41.082Z,63.60
2024-02-28T12:04:09.615Z,59.78
2024-02-28T12:06:39.418Z,63.08
2024-02-28T12:09:10.064Z,61.47
2024-02-28T12:11:38.696Z,64.25
2024-02-28T12:14:10.395Z,73.07
2024-02-28T12:16:39.592Z,65.35
2024-02-28T12:19:10.976Z,63.22
2024-02-28T12:21:39.193Z,59.38
2024-02-28T12:24:10.432Z,51.53
2024-02-28T12:26:38.568Z,53.65
2024-02-28T12:29:08.196Z,49.15
2024-02-28T12:31:37.056Z,56.92
2024-02-28T12:34:05.960Z,60.00
2024-02-28T12:36:35.290Z,55.80
2024-02-28T12:39:03.674Z,59.05
2024-02-28T12:41:31.596Z,55.88
2024-02-28T12:43:59.532Z,54.53
2024-02-28T12:46:28.844Z,60.53
2024-02-28T12:48:56.812Z,72.32
2024-02-28T12:51:39.380Z,58.78
2024-02-28T12:54:08.804Z,62.72
2024-02-28T12:56:37.604Z,61.17
2024-02-28T12:59:05.552Z,59.55
2024-02-28T13:01:35.651Z,54.88
2024-02-28T13:04:03.823Z,55.05
2024-02-28T13:06:32.139Z,53.67
2024-02-28T13:09:00.126Z,57.92
2024-02-28T13:11:28.319Z,54.20
2024-02-28T13:13:56.230Z,50.72
2024-02-28T13:16:24.856Z,51.38
2024-02-28T13:18:54.188Z,52.13
2024-02-28T13:21:22.330Z,52.55
2024-02-28T13:23:51.428Z,53.53
2024-02-28T13:26:20.198Z,56.10
2024-02-28T13:28:50.585Z,55.75
2024-02-28T13:31:20.872Z,48.72
2024-02-28T13:33:49.997Z,51.47
2024-02-28T13:36:19.919Z,46.28
2024-02-28T13:38:48.019Z,49.42
2024-02-28T13:41:17.593Z,48.35
2024-02-28T13:43:45.694Z,50.22
2024-02-28T13:46:15.579Z,42.90
2024-02-28T13:48:44.083Z,43.25
2024-02-28T13:51:13.023Z,49.08
2024-02-28T13:53:42.251Z,45.08
2024-02-28T13:56:10.236Z,47.38
2024-02-28T13:58:43.015Z,47.83
2024-02-28T14:01:17.241Z,43.28
2024-02-28T14:03:45.231Z,46.65
2024-02-28T14:06:13.124Z,43.70
2024-02-28T14:08:44.072Z,45.70
2024-02-28T14:11:12.406Z,42.28
2024-02-28T14:13:41.560Z,47.88
2024-02-28T14:16:09.889Z,45.15
2024-02-28T14:18:37.875Z,49.22
2024-02-28T14:21:08.244Z,48.50
2024-02-28T14:23:36.670Z,42.13
2024-02-28T14:26:06.088Z,47.55
2024-02-28T14:28:34.089Z,44.13
2024-02-28T14:31:03.043Z,45.40
2024-02-28T14:33:31.252Z,49.00
2024-02-28T14:36:01.688Z,56.58
2024-02-28T14:38:29.614Z,48.05
2024-02-28T14:40:58.297Z,46.05
2024-02-28T14:43:31.026Z,40.38
2024-02-28T14:45:59.423Z,40.78
2024-02-28T14:48:27.285Z,44.90
2024-02-28T14:50:55.508Z,44.47
2024-02-28T14:53:24.631Z,42.03
2024-02-28T14:55:52.758Z,40.15
2024-02-28T14:58:20.703Z,50.95
2024-02-28T15:00:50.617Z,44.58
2024-02-28T15:03:18.692Z,44.40
2024-02-28T15:05:46.842Z,43.30
2024-02-28T15:08:14.755Z,44.65
2024-02-28T15:10:42.638Z,46.42
2024-02-28T15:13:13.325Z,43.72
2024-02-28T15:15:42.868Z,44.20
2024-02-28T15:18:13.367Z,42.13
2024-02-28T15:20:41.538Z,46.40
2024-02-28T15:23:09.704Z,43.95
2024-02-28T15:25:37.829Z,44.30
2024-02-28T15:28:06.663Z,46.95
2024-02-28T15:30:34.782Z,41.97
2024-02-28T15:33:02.862Z,41.60
2024-02-28T15:35:32.792Z,40.50
2024-02-28T15:38:00.767Z,43.83
2024-02-28T15:40:29.378Z,44.13
2024-02-28T15:42:59.479Z,38.15
2024-02-28T15:45:27.614Z,40.97
2024-02-28T15:47:55.598Z,41.30
2024-02-28T15:50:24.426Z,40.63
2024-02-28T15:52:54.862Z,37.40
2024-02-28T15:55:23.915Z,42.17
2024-02-28T15:57:52.130Z,35.08
2024-02-28T16:00:21.063Z,38.05
2024-02-28T16:02:49.096Z,42.72
2024-02-28T16:05:17.273Z,39.60
2024-02-28T16:07:46.891Z,40.80
2024-02-28T16:10:16.592Z,35.75
2024-02-28T16:12:44.638Z,39.08
2024-02-28T16:15:12.932Z,41.55
2024-02-28T16:17:41.459Z,39.58
2024-02-28T16:20:10.181Z,38.50
2024-02-28T16:22:38.043Z,43.00
2024-02-28T16:25:07.615Z,43.20
2024-02-28T16:27:37.405Z,39.15
2024-02-28T16:30:07.715Z,39.72
2024-02-28T16:32:36.887Z,47.42
2024-02-28T16:35:05.586Z,43.35
2024-02-28T16:37:33.428Z,42.72
2024-02-28T16:40:01.464Z,43.20
2024-02-28T16:42:31.586Z,41.40
2024-02-28T16:45:00.908Z,39.63
2024-02-28T16:47:29.658Z,43.55
2024-02-28T16:49:58.178Z,37.47
2024-02-28T16:52:27.201Z,37.05
2024-02-28T16:54:55.118Z,39.53
2024-02-28T16:57:23.094Z,36.47
2024-02-28T16:59:51.140Z,38.28
2024-02-28T17:02:20.362Z,40.50
2024-02-28T17:04:48.190Z,38.15
2024-02-28T17:07:20.504Z,46.78
2024-02-28T17:09:48.566Z,45.70
2024-02-28T17:12:16.793Z,41.45
2024-02-28T17:14:44.801Z,42.80
2024-02-28T17:17:13.477Z,44.95
2024-02-28T17:19:42.831Z,44.30
2024-02-28T17:22:10.740Z,39.65
2024-02-28T17:24:38.636Z,44.03
2024-02-28T17:27:08.545Z,43.40
2024-02-28T17:29:37.068Z,43.10
2024-02-28T17:32:05.801Z,43.03
2024-02-28T17:34:34.515Z,44.85
2024-02-28T17:37:04.127Z,46.05
2024-02-28T17:39:32.058Z,40.42
2024-02-28T17:42:00.172Z,40.58
2024-02-28T17:44:28.350Z,44.95
2024-02-28T17:46:56.619Z,41.30
2024-02-28T17:49:25.893Z,42.47
2024-02-28T17:51:54.855Z,39.60
2024-02-28T17:54:25.401Z,47.88
2024-02-28T17:56:54.757Z,40.85
2024-02-28T17:59:22.703Z,45.03
2024-02-28T18:01:50.961Z,50.38
2024-02-28T18:04:18.888Z,43.25
2024-02-28T18:06:46.849Z,43.70
2024-02-28T18:09:19.249Z,39.97
2024-02-28T18:11:50.143Z,43.08
2024-02-28T18:14:20.723Z,43.55
2024-02-28T18:16:48.629Z,42.70
2024-02-28T18:19:18.802Z,44.85
2024-02-28T18:21:47.032Z,43.28
2024-02-28T18:24:15.528Z,47.00
2024-02-28T18:26:44.148Z,43.60
2024-02-28T18:29:13.643Z,47.05
2024-02-28T18:31:41.540Z,38.60
2024-02-28T18:34:09.555Z,39.47
2024-02-28T18:36:37.907Z,37.40
2024-02-28T18:39:05.814Z,37.63
2024-02-28T18:41:33.652Z,35.00
2024-02-28T18:44:01.628Z,44.33
2024-02-28T18:46:31.519Z,45.83
2024-02-28T18:48:59.634Z,40.42
2024-02-28T18:51:28.342Z,43.80
2024-02-28T18:53:56.434Z,39.13
2024-02-28T18:56:24.706Z,43.50
2024-02-28T18:58:52.558Z,45.03
2024-02-28T19:01:21.112Z,47.50
2024-02-28T19:03:50.983Z,49.03
2024-02-28T19:06:19.257Z,51.63
2024-02-28T19:08:47.423Z,42.22
2024-02-28T19:11:15.389Z,43.80
2024-02-28T19:13:43.749Z,60.90
2024-02-28T19:16:11.692Z,56.83
2024-02-28T19:18:41.204Z,45.72
2024-02-28T19:21:10.636Z,56.50
2024-02-28T19:23:41.699Z,51.92
2024-02-28T19:26:09.802Z,49.75
2024-02-28T19:28:37.624Z,48.20
2024-02-28T19:31:05.872Z,46.17
2024-02-28T19:33:37.078Z,52.85
2024-02-28T19:36:06.227Z,69.53
2024-02-28T19:38:35.960Z,57.80
2024-02-28T19:41:05.076Z,58.00
2024-02-28T19:43:33.448Z,63.58
2024-02-28T19:46:01.914Z,58.50
2024-02-28T19:48:29.987Z,66.25
2024-02-28T19:50:57.921Z,59.63
2024-02-28T19:53:26.033Z,56.60
2024-02-28T19:55:55.342Z,58.53
2024-02-28T19:58:23.229Z,46.63
2024-02-28T20:00:51.326Z,57.67
2024-02-28T20:03:19.901Z,54.22
2024-02-28T20:05:48.178Z,57.00
2024-02-28T20:08:16.186Z,59.45
2024-02-28T20:10:44.217Z,62.55
2024-02-28T20:13:14.847Z,58.67
2024-02-28T20:15:43.120Z,64.30
2024-02-28T20:18:11.300Z,57.90
2024-02-28T20:20:39.498Z,45.42
2024-02-28T20:23:07.316Z,49.78
2024-02-28T20:25:35.363Z,46.42
2024-02-28T20:28:05.513Z,38.80
2024-02-28T20:30:35.216Z,36.17
2024-02-28T20:33:03.406Z,41.05
2024-02-28T20:35:33.033Z,34.67
2024-02-28T20:38:01.226Z,30.77
2024-02-28T20:40:29.698Z,36.50
2024-02-28T20:42:58.528Z,33.40
2024-02-28T20:45:26.634Z,33.03
2024-02-28T20:47:57.613Z,31.52
2024-02-28T20:50:26.226Z,31.70
2024-02-28T20:52:54.344Z,30.08
2024-02-28T20:55:26.190Z,33.97
2024-02-28T20:57:54.145Z,36.28
2024-02-28T21:00:22.790Z,31.13
2024-02-28T21:02:51.158Z,30.92
2024-02-28T21:05:21.033Z,31.58
2024-02-28T21:07:53.254Z,27.70
2024-02-28T21:10:22.382Z,28.10
2024-02-28T21:12:50.488Z,30.35
2024-02-28T21:15:18.638Z,29.30
2024-02-28T21:17:46.629Z,28.88
2024-02-28T21:20:14.834Z,27.33
2024-02-28T21:22:44.065Z,31.42
2024-02-28T21:25:12.377Z,29.20
2024-02-28T21:27:40.581Z,30.55
2024-02-28T21:30:10.672Z,21.35
2024-02-28T21:32:40.397Z,25.30
2024-02-28T21:35:09.660Z,26.20
2024-02-28T21:37:37.719Z,23.85
2024-02-28T21:40:08.850Z,24.00
2024-02-28T21:42:36.975Z,23.50
2024-02-28T21:45:05.540Z,22.52
2024-02-28T21:47:33.472Z,21.23
2024-02-28T21:50:01.386Z,18.88
2024-02-28T21:52:29.386Z,20.35
2024-02-28T21:54:58.251Z,21.48
2024-02-28T21:57:27.620Z,20.67
2024-02-28T21:59:55.451Z,18.73
2024-02-28T22:02:23.343Z,17.88
2024-02-28T22:04:51.222Z,17.55
2024-02-28T22:07:19.107Z,19.25
2024-02-28T22:09:47.005Z,15.18
2024-02-28T22:12:15.241Z,16.95
2024-02-28T22:14:44.519Z,16.42
2024-02-28T22:17:12.422Z,16.10
2024-02-28T22:19:40.358Z,16.70
2024-02-28T22:22:08.737Z,18.40
2024-02-28T22:24:36.720Z,15.27
2024-02-28T22:27:05.908Z,18.25
2024-02-28T22:29:34.432Z,17.30
2024-02-28T22:32:03.880Z,14.18
2024-02-28T22:34:31.719Z,14.77
2024-02-28T22:36:59.609Z,13.93
2024-02-28T22:39:28.432Z,13.57
2024-02-28T22:41:57.946Z,12.15
2024-02-28T22:44:25.883Z,11.10
2024-02-28T22:46:54.097Z,12.38
2024-02-28T22:49:23.411Z,11.85
2024-02-28T22:51:51.556Z,12.80
2024-02-28T22:54:19.580Z,12.65
2024-02-28T22:56:48.610Z,10.38
2024-02-28T22:59:18.320Z,12.50
2024-02-28T23:01:47.156Z,10.82
2024-02-28T23:04:16.914Z,14.10
2024-02-28T23:06:46.157Z,10.05
2024-02-28T23:09:15.155Z,9.63
2024-02-28T23:11:43.332Z,9.70
2024-02-28T23:14:12.779Z,8.23
2024-02-28T23:16:40.829Z,10.63
2024-02-28T23:19:09.365Z,9.27
2024-02-28T23:21:38.812Z,7.95
2024-02-28T23:24:09.037Z,10.02
2024-02-28T23:26:37.483Z,8.10
2024-02-28T23:29:05.555Z,7.05
2024-02-28T23:31:33.452Z,7.35
2024-02-28T23:34:01.277Z,8.35
2024-02-28T23:36:29.206Z,9.18
2024-02-28T23:38:57.068Z,9.65
2024-02-28T23:41:26.667Z,9.07
2024-02-28T23:43:57.467Z,9.43
2024-02-28T23:46:26.341Z,8.05
2024-02-28T23:48:54.176Z,10.57
2024-02-28T23:51:22.100Z,8.75
2024-02-28T23:53:50.067Z,9.35
2024-02-28T23:56:17.963Z,10.07
2024-02-28T23:58:47.220Z,11.30
